createdAt,value
2024-02-04T00:01:44.204Z,2.70
2024-02-04T00:04:17.931Z,3.63
2024-02-04T00:06:49.408Z,3.40
2024-02-04T00:09:16.228Z,3.33
2024-02-04T00:11:43.070Z,3.60
2024-02-04T00:14:12.419Z,2.80
2024-02-04T00:16:39.289Z,2.30
2024-02-04T00:19:06.086Z,2.67
2024-02-04T00:21:37.579Z,2.17
2024-02-04T00:24:06.984Z,2.23
2024-02-04T00:26:38.445Z,2.00
2024-02-04T00:29:05.168Z,2.20
2024-02-04T00:31:31.903Z,1.80
2024-02-04T00:34:02.022Z,1.90
2024-02-04T00:36:28.799Z,1.60
2024-02-04T00:38:55.573Z,1.20
2024-02-04T00:41:24.742Z,1.70
2024-02-04T00:43:53.834Z,1.40
2024-02-04T00:46:20.647Z,1.53
2024-02-04T00:48:50.251Z,1.60
2024-02-04T00:51:18.388Z,1.30
2024-02-04T00:53:47.944Z,1.33
2024-02-04T00:56:17.165Z,1.10
2024-02-04T00:58:46.393Z,1.30
2024-02-04T01:01:13.637Z,1.20
2024-02-04T01:03:40.480Z,1.57
2024-02-04T01:06:07.407Z,1.10
2024-02-04T01:08:38.567Z,1.23
2024-02-04T01:11:08.538Z,1.00
2024-02-04T01:13:35.537Z,1.70
2024-02-04T01:16:02.463Z,1.20
2024-02-04T01:18:32.790Z,1.43
2024-02-04T01:21:01.448Z,1.47
2024-02-04T01:23:30.603Z,1.30
2024-02-04T01:25:59.832Z,2.40
2024-02-04T01:28:31.816Z,1.87
2024-02-04T01:31:00.732Z,2.00
2024-02-04T01:33:27.655Z,1.60
2024-02-04T01:35:54.537Z,2.10
2024-02-04T01:38:21.232Z,2.90
2024-02-04T01:40:52.423Z,1.97
2024-02-04T01:43:22.324Z,1.40
2024-02-04T01:45:54.056Z,2.40
2024-02-04T01:48:23.460Z,1.83
2024-02-04T01:50:56.155Z,1.03
2024-02-04T01:53:24.572Z,2.50
2024-02-04T01:55:51.387Z,2.80
2024-02-04T01:58:18.794Z,1.97
2024-02-04T02:00:46.550Z,1.23
2024-02-04T02:03:14.312Z,1.00
2024-02-04T02:05:41.738Z,1.10
2024-02-04T02:08:08.958Z,1.43
2024-02-04T02:10:38.549Z,1.30
2024-02-04T02:13:15.356Z,1.90
2024-02-04T02:15:47.883Z,1.00
2024-02-04T02:18:22.651Z,0.93
2024-02-04T02:20:57.040Z,1.00
2024-02-04T02:23:35.174Z,1.37
2024-02-04T02:26:03.362Z,1.27
2024-02-04T02:28:35.096Z,0.60
2024-02-04T02:31:04.531Z,0.77
2024-02-04T02:33:33.313Z,4.40
2024-02-04T02:36:03.623Z,1.48
2024-02-04T02:38:36.682Z,0.70
2024-02-04T02:41:11.705Z,1.40
2024-02-04T02:43:41.827Z,0.80
2024-02-04T02:46:11.411Z,2.80
2024-02-04T02:48:43.038Z,0.73
2024-02-04T02:51:12.108Z,0.87
2024-02-04T02:53:41.372Z,0.60
2024-02-04T02:56:08.392Z,1.87
2024-02-04T02:58:37.674Z,0.97
2024-02-04T03:01:04.621Z,1.20
2024-02-04T03:03:31.567Z,0.60
2024-02-04T03:05:58.442Z,1.27
2024-02-04T03:08:27.694Z,0.87
2024-02-04T03:10:56.595Z,0.57
2024-02-04T03:13:23.299Z,1.00
2024-02-04T03:15:50.395Z,0.70
2024-02-04T03:18:17.204Z,0.70
2024-02-04T03:20:43.906Z,0.83
2024-02-04T03:23:12.931Z,0.73
2024-02-04T03:25:41.799Z,0.43
2024-02-04T03:28:08.916Z,0.73
2024-02-04T03:30:35.664Z,0.70
2024-02-04T03:33:02.494Z,1.03
2024-02-04T03:35:31.515Z,0.63
2024-02-04T03:37:58.631Z,0.50
2024-02-04T03:40:25.869Z,1.03
2024-02-04T03:42:54.915Z,0.70
2024-02-04T03:45:21.793Z,0.40
2024-02-04T03:47:48.639Z,0.57
2024-02-04T03:50:15.413Z,0.40
2024-02-04T03:52:45.023Z,0.50
2024-02-04T03:55:14.316Z,0.50
2024-02-04T03:57:41.179Z,0.47
2024-02-04T04:00:09.160Z,0.30
2024-02-04T04:02:35.857Z,0.73
2024-02-04T04:05:06.069Z,1.13
2024-02-04T04:07:35.259Z,0.63
2024-02-04T04:10:02.173Z,0.70
2024-02-04T04:12:31.160Z,0.40
2024-02-04T04:14:57.871Z,0.47
2024-02-04T04:17:27.442Z,1.37
2024-02-04T04:19:54.198Z,1.33
2024-02-04T04:22:21.023Z,0.90
2024-02-04T04:24:50.153Z,1.00
2024-02-04T04:27:19.456Z,0.90
2024-02-04T04:29:46.138Z,0.43
2024-02-04T04:32:12.863Z,0.40
2024-02-04T04:34:42.564Z,0.70
2024-02-04T04:37:09.470Z,1.00
2024-02-04T04:39:38.440Z,0.80
2024-02-04T04:42:05.342Z,0.90
2024-02-04T04:44:32.077Z,1.33
2024-02-04T04:47:01.027Z,0.43
2024-02-04T04:49:30.099Z,0.33
2024-02-04T04:51:56.963Z,0.30
2024-02-04T04:54:24.029Z,2.00
2024-02-04T04:56:50.829Z,0.50
2024-02-04T04:59:18.016Z,0.37
2024-02-04T05:01:49.027Z,0.67
2024-02-04T05:04:22.292Z,0.63
2024-02-04T05:06:53.903Z,0.40
2024-02-04T05:09:20.735Z,0.30
2024-02-04T05:11:47.586Z,1.03
2024-02-04T05:14:14.737Z,0.60
2024-02-04T05:16:47.004Z,0.50
2024-02-04T05:19:14.419Z,0.60
2024-02-04T05:21:41.672Z,1.00
2024-02-04T05:24:08.652Z,0.47
2024-02-04T05:26:35.761Z,0.60
2024-02-04T05:29:04.893Z,1.37
2024-02-04T05:31:33.872Z,0.50
2024-02-04T05:34:09.058Z,2.27
2024-02-04T05:36:35.893Z,0.90
2024-02-04T05:39:16.413Z,0.90
2024-02-04T05:41:43.744Z,2.60
2024-02-04T05:44:12.984Z,0.97
2024-02-04T05:46:42.765Z,1.73
2024-02-04T05:49:12.276Z,0.57
2024-02-04T05:51:43.406Z,1.10
2024-02-04T05:54:12.373Z,0.50
2024-02-04T05:56:43.730Z,0.90
2024-02-04T05:59:12.606Z,0.63
2024-02-04T06:01:41.580Z,0.70
2024-02-04T06:04:08.599Z,0.47
2024-02-04T06:06:40.123Z,1.40
2024-02-04T06:09:07.587Z,0.63
2024-02-04T06:11:34.357Z,0.90
2024-02-04T06:14:03.551Z,1.10
2024-02-04T06:16:30.426Z,0.60
2024-02-04T06:18:59.232Z,1.07
2024-02-04T06:21:26.164Z,1.80
2024-02-04T06:23:52.909Z,1.10
2024-02-04T06:26:19.639Z,0.60
2024-02-04T06:28:47.849Z,0.60
2024-02-04T06:31:17.102Z,0.97
2024-02-04T06:33:46.343Z,1.23
2024-02-04T06:36:13.061Z,0.57
2024-02-04T06:38:42.185Z,0.60
2024-02-04T06:41:08.874Z,2.25
2024-02-04T06:43:38.525Z,1.77
2024-02-04T06:46:10.043Z,0.77
2024-02-04T06:48:36.980Z,0.90
2024-02-04T06:51:03.950Z,0.70
2024-02-04T06:53:30.684Z,0.60
2024-02-04T06:56:01.909Z,0.50
2024-02-04T06:58:29.192Z,0.90
2024-02-04T07:01:00.421Z,0.80
2024-02-04T07:03:30.286Z,0.70
2024-02-04T07:05:57.169Z,1.65
2024-02-04T07:08:23.969Z,2.13
2024-02-04T07:10:50.908Z,1.93
2024-02-04T07:13:17.740Z,0.80
2024-02-04T07:15:44.767Z,0.90
2024-02-04T07:18:11.753Z,0.60
2024-02-04T07:20:38.874Z,0.70
2024-02-04T07:23:07.864Z,0.53
2024-02-04T07:25:36.545Z,1.70
2024-02-04T07:28:06.432Z,0.50
2024-02-04T07:30:33.262Z,0.80
2024-02-04T07:33:02.158Z,0.40
2024-02-04T07:35:28.885Z,0.60
2024-02-04T07:37:55.627Z,0.60
2024-02-04T07:40:22.896Z,0.50
2024-02-04T07:42:50.025Z,0.70
2024-02-04T07:45:16.806Z,0.63
2024-02-04T07:47:43.544Z,0.87
2024-02-04T07:50:15.117Z,0.50
2024-02-04T07:52:45.304Z,0.60
2024-02-04T07:55:12.364Z,0.50
2024-02-04T07:57:39.107Z,0.50
2024-02-04T08:00:11.225Z,0.52
2024-02-04T08:02:41.100Z,1.00
2024-02-04T08:05:08.391Z,0.70
2024-02-04T08:07:35.593Z,0.60
2024-02-04T08:10:03.001Z,1.33
2024-02-04T08:12:29.783Z,0.80
2024-02-04T08:14:58.986Z,0.50
2024-02-04T08:17:25.937Z,0.80
2024-02-04T08:19:57.406Z,0.80
2024-02-04T08:22:26.602Z,1.10
2024-02-04T08:24:55.925Z,0.90
2024-02-04T08:27:25.386Z,0.67
2024-02-04T08:29:54.272Z,0.90
2024-02-04T08:32:25.758Z,1.90
2024-02-04T08:34:57.351Z,0.93
2024-02-04T08:37:26.504Z,0.70
2024-02-04T08:39:55.056Z,0.83
2024-02-04T08:42:21.855Z,1.20
2024-02-04T08:44:50.898Z,1.67
2024-02-04T08:47:20.264Z,0.80
2024-02-04T08:49:49.347Z,1.20
2024-02-04T08:52:16.372Z,0.67
2024-02-04T08:54:43.433Z,1.30
2024-02-04T08:57:10.652Z,1.00
2024-02-04T08:59:39.592Z,0.90
2024-02-04T09:02:11.228Z,1.00
2024-02-04T09:04:41.850Z,2.43
2024-02-04T09:07:11.519Z,1.40
2024-02-04T09:09:38.920Z,1.10
2024-02-04T09:12:05.854Z,0.97
2024-02-04T09:14:33.458Z,0.80
2024-02-04T09:17:00.173Z,0.70
2024-02-04T09:19:27.046Z,1.87
2024-02-04T09:21:56.107Z,1.40
2024-02-04T09:24:22.859Z,1.83
2024-02-04T09:26:52.135Z,0.83
2024-02-04T09:29:19.289Z,1.03
2024-02-04T09:31:46.549Z,0.90
2024-02-04T09:34:13.817Z,1.00
2024-02-04T09:36:41.319Z,0.73
2024-02-04T09:39:08.985Z,1.97
2024-02-04T09:41:37.937Z,0.60
2024-02-04T09:44:08.433Z,0.98
2024-02-04T09:46:37.403Z,0.50
2024-02-04T09:49:06.158Z,0.80
2024-02-04T09:51:33.221Z,1.20
2024-02-04T09:54:07.541Z,0.50
2024-02-04T09:56:38.342Z,0.63
2024-02-04T09:59:08.188Z,0.83
2024-02-04T10:01:37.120Z,1.37
2024-02-04T10:04:09.120Z,1.20
2024-02-04T10:06:38.342Z,0.80
2024-02-04T10:09:05.329Z,0.80
2024-02-04T10:11:32.104Z,0.60
2024-02-04T10:13:58.879Z,0.90
2024-02-04T10:16:33.338Z,0.80
2024-02-04T10:19:00.518Z,0.80
2024-02-04T10:21:30.081Z,0.60
2024-02-04T10:24:01.715Z,1.30
2024-02-04T10:26:36.598Z,1.00
2024-02-04T10:29:03.937Z,0.60
2024-02-04T10:31:30.864Z,0.83
2024-02-04T10:33:57.999Z,0.75
2024-02-04T10:36:24.896Z,0.80
2024-02-04T10:38:53.982Z,1.30
2024-02-04T10:41:22.004Z,1.07
2024-02-04T10:43:48.864Z,1.10
2024-02-04T10:46:20.468Z,0.97
2024-02-04T10:48:56.597Z,0.90
2024-02-04T10:51:28.597Z,1.70
2024-02-04T10:53:59.958Z,1.60
2024-02-04T10:56:42.644Z,1.20
2024-02-04T10:59:13.201Z,1.80
2024-02-04T11:01:43.222Z,1.80
2024-02-04T11:04:13.223Z,1.50
2024-02-04T11:06:44.838Z,1.67
2024-02-04T11:09:15.528Z,2.40
2024-02-04T11:11:43.219Z,1.77
2024-02-04T11:14:14.353Z,2.17
2024-02-04T11:17:07.851Z,2.47
2024-02-04T11:19:46.512Z,1.83
2024-02-04T11:22:43.333Z,2.20
2024-02-04T11:25:10.072Z,1.93
2024-02-04T11:27:37.427Z,2.63
2024-02-04T11:30:05.794Z,2.03
2024-02-04T11:32:33.006Z,1.80
2024-02-04T11:35:08.868Z,4.50
2024-02-04T11:37:43.545Z,1.53
2024-02-04T11:40:16.904Z,1.70
2024-02-04T11:42:46.280Z,2.03
2024-02-04T11:45:16.089Z,1.80
2024-02-04T11:47:43.266Z,1.20
2024-02-04T11:50:12.839Z,1.73
2024-02-04T11:52:43.137Z,1.50
2024-02-04T11:55:17.841Z,1.43
2024-02-04T11:57:47.191Z,1.60
2024-02-04T12:00:14.659Z,1.50
2024-02-04T12:02:41.412Z,1.30
2024-02-04T12:05:09.860Z,1.50
2024-02-04T12:07:42.885Z,1.70
2024-02-04T12:10:11.961Z,1.03
2024-02-04T12:12:42.689Z,1.47
2024-02-04T12:15:11.822Z,1.03
2024-02-04T12:17:38.812Z,1.00
2024-02-04T12:20:06.628Z,0.93
2024-02-04T12:22:35.929Z,0.83
2024-02-04T12:25:04.535Z,0.90
2024-02-04T12:27:31.354Z,1.07
2024-02-04T12:30:00.630Z,0.70
2024-02-04T12:32:27.591Z,0.70
2024-02-04T12:34:58.156Z,0.80
2024-02-04T12:37:27.739Z,0.80
2024-02-04T12:39:54.937Z,0.90
2024-02-04T12:42:22.680Z,0.70
2024-02-04T12:44:50.051Z,1.10
2024-02-04T12:47:22.866Z,0.53
2024-02-04T12:49:49.891Z,0.60
2024-02-04T12:52:22.942Z,0.57
2024-02-04T12:54:54.087Z,0.63
2024-02-04T12:57:25.299Z,0.50
2024-02-04T13:00:04.541Z,0.67
2024-02-04T13:02:31.615Z,0.80
2024-02-04T13:05:03.117Z,0.50
2024-02-04T13:07:30.035Z,0.70
2024-02-04T13:10:02.579Z,0.70
2024-02-04T13:12:34.062Z,0.80
2024-02-04T13:15:01.013Z,0.90
2024-02-04T13:17:27.779Z,0.77
2024-02-04T13:19:56.868Z,1.00
2024-02-04T13:22:23.649Z,0.90
2024-02-04T13:24:52.564Z,0.70
2024-02-04T13:27:21.949Z,0.77
2024-02-04T13:29:49.099Z,0.87
2024-02-04T13:32:19.041Z,0.88
2024-02-04T13:34:50.832Z,1.10
2024-02-04T13:37:20.204Z,0.80
2024-02-04T13:39:49.159Z,0.80
2024-02-04T13:42:18.411Z,0.70
2024-02-04T13:44:47.717Z,0.90
2024-02-04T13:47:14.490Z,0.90
2024-02-04T13:49:41.274Z,0.80
2024-02-04T13:52:08.080Z,0.70
2024-02-04T13:54:34.916Z,0.70
2024-02-04T13:57:01.770Z,0.80
2024-02-04T13:59:30.613Z,0.73
2024-02-04T14:02:02.045Z,0.80
2024-02-04T14:04:31.903Z,1.67
2024-02-04T14:07:01.479Z,1.13
2024-02-04T14:09:29.081Z,1.40
2024-02-04T14:11:58.087Z,1.30
2024-02-04T14:14:27.931Z,1.17
2024-02-04T14:16:54.952Z,0.93
2024-02-04T14:19:24.419Z,1.20
2024-02-04T14:21:53.654Z,1.37
2024-02-04T14:24:20.452Z,1.17
2024-02-04T14:26:47.317Z,1.40
2024-02-04T14:29:14.402Z,1.00
2024-02-04T14:31:41.242Z,1.00
2024-02-04T14:34:08.055Z,0.80
2024-02-04T14:36:37.057Z,1.20
2024-02-04T14:39:06.282Z,1.03
2024-02-04T14:41:36.569Z,1.07
2024-02-04T14:44:05.803Z,1.13
2024-02-04T14:46:32.892Z,1.20
2024-02-04T14:49:00.102Z,1.00
2024-02-04T14:51:29.577Z,1.10
2024-02-04T14:53:58.600Z,0.80
2024-02-04T14:56:27.845Z,1.30
2024-02-04T14:58:56.871Z,0.80
2024-02-04T15:01:26.672Z,0.90
2024-02-04T15:03:56.107Z,1.00
2024-02-04T15:06:25.408Z,1.03
2024-02-04T15:08:54.619Z,1.00
2024-02-04T15:11:23.790Z,1.03
2024-02-04T15:13:53.794Z,1.10
2024-02-04T15:16:20.902Z,1.30
2024-02-04T15:18:53.229Z,0.87
2024-02-04T15:21:20.423Z,1.03
2024-02-04T15:23:47.790Z,1.20
2024-02-04T15:26:17.572Z,1.60
2024-02-04T15:28:49.177Z,1.40
2024-02-04T15:31:19.144Z,1.43
2024-02-04T15:33:47.467Z,1.53
2024-02-04T15:36:16.517Z,1.87
2024-02-04T15:38:43.256Z,1.50
2024-02-04T15:41:10.792Z,1.50
2024-02-04T15:43:37.516Z,1.50
2024-02-04T15:46:10.289Z,1.30
2024-02-04T15:48:41.630Z,1.50
2024-02-04T15:51:09.007Z,1.50
2024-02-04T15:53:39.060Z,1.40
2024-02-04T15:56:09.266Z,1.43
2024-02-04T15:58:39.578Z,1.40
2024-02-04T16:01:29.409Z,1.27
2024-02-04T16:03:56.634Z,1.47
2024-02-04T16:06:26.582Z,1.20
2024-02-04T16:08:53.661Z,1.90
2024-02-04T16:11:24.739Z,1.23
2024-02-04T16:13:52.843Z,1.17
2024-02-04T16:16:28.188Z,1.00
2024-02-04T16:19:00.213Z,1.13
2024-02-04T16:21:27.387Z,1.00
2024-02-04T16:23:56.976Z,1.30
2024-02-04T16:26:24.023Z,1.13
2024-02-04T16:28:51.233Z,1.17
2024-02-04T16:31:18.073Z,1.33
2024-02-04T16:33:45.210Z,1.10
2024-02-04T16:36:12.152Z,1.10
2024-02-04T16:38:39.378Z,1.03
2024-02-04T16:41:11.044Z,1.13
2024-02-04T16:43:37.771Z,1.20
2024-02-04T16:46:04.706Z,1.30
2024-02-04T16:48:31.832Z,1.00
2024-02-04T16:51:01.169Z,1.17
2024-02-04T16:53:28.294Z,1.38
2024-02-04T16:55:55.258Z,1.80
2024-02-04T16:58:22.560Z,1.57
2024-02-04T17:00:51.795Z,1.43
2024-02-04T17:03:18.858Z,1.30
2024-02-04T17:05:55.708Z,1.20
2024-02-04T17:08:24.637Z,1.27
2024-02-04T17:10:53.344Z,1.53
2024-02-04T17:13:23.309Z,1.70
2024-02-04T17:15:52.867Z,2.13
2024-02-04T17:18:36.760Z,2.70
2024-02-04T17:21:09.574Z,2.00
2024-02-04T17:23:39.506Z,1.90
2024-02-04T17:26:08.148Z,1.80
2024-02-04T17:28:35.267Z,1.60
2024-02-04T17:31:02.410Z,1.70
2024-02-04T17:33:29.595Z,1.63
2024-02-04T17:35:56.467Z,2.47
2024-02-04T17:38:23.483Z,2.87
2024-02-04T17:40:50.195Z,2.50
2024-02-04T17:43:20.737Z,2.33
2024-02-04T17:45:47.840Z,2.73
2024-02-04T17:48:17.079Z,1.70
2024-02-04T17:50:44.065Z,2.33
2024-02-04T17:53:13.855Z,2.30
2024-02-04T17:55:42.507Z,2.27
2024-02-04T17:58:10.034Z,2.37
2024-02-04T18:00:36.927Z,2.10
2024-02-04T18:03:07.359Z,2.27
2024-02-04T18:05:38.975Z,1.93
2024-02-04T18:08:08.632Z,1.63
2024-02-04T18:10:37.734Z,1.70
2024-02-04T18:13:04.806Z,1.70
2024-02-04T18:15:31.998Z,1.90
2024-02-04T18:18:01.440Z,1.73
2024-02-04T18:20:28.731Z,2.00
2024-02-04T18:22:58.089Z,1.90
2024-02-04T18:25:25.026Z,2.15
2024-02-04T18:27:51.797Z,2.07
2024-02-04T18:30:23.939Z,2.00
2024-02-04T18:32:50.644Z,1.90
2024-02-04T18:35:17.493Z,2.20
2024-02-04T18:37:44.341Z,2.87
2024-02-04T18:40:11.829Z,2.70
2024-02-04T18:42:39.914Z,2.63
2024-02-04T18:45:07.678Z,2.40
2024-02-04T18:47:34.729Z,3.15
2024-02-04T18:50:04.245Z,3.30
2024-02-04T18:52:34.462Z,3.17
2024-02-04T18:55:01.298Z,3.60
2024-02-04T18:57:29.410Z,3.27
2024-02-04T19:00:01.343Z,4.47
2024-02-04T19:02:28.033Z,4.47
2024-02-04T19:04:54.972Z,4.20
2024-02-04T19:07:21.847Z,3.60
2024-02-04T19:09:55.865Z,4.10
2024-02-04T19:12:25.387Z,3.30
2024-02-04T19:14:52.133Z,3.90
2024-02-04T19:17:21.425Z,3.10
2024-02-04T19:19:50.840Z,3.60
2024-02-04T19:22:19.893Z,3.30
2024-02-04T19:24:48.949Z,3.30
2024-02-04T19:27:18.173Z,3.50
2024-02-04T19:29:45.213Z,3.20
2024-02-04T19:32:12.053Z,3.27
2024-02-04T19:34:44.517Z,3.35
2024-02-04T19:37:11.322Z,3.67
2024-02-04T19:39:40.932Z,3.27
2024-02-04T19:42:08.665Z,3.10
2024-02-04T19:44:37.859Z,3.10
2024-02-04T19:47:04.818Z,3.17
2024-02-04T19:49:31.706Z,3.27
2024-02-04T19:52:03.385Z,3.00
2024-02-04T19:54:30.790Z,3.10
2024-02-04T19:57:09.916Z,3.00
2024-02-04T19:59:39.078Z,2.90
2024-02-04T20:02:07.776Z,3.28
2024-02-04T20:04:36.936Z,3.10
2024-02-04T20:07:04.847Z,3.10
2024-02-04T20:09:35.086Z,2.67
2024-02-04T20:12:04.413Z,3.00
2024-02-04T20:14:35.757Z,2.93
2024-02-04T20:17:02.478Z,2.53
2024-02-04T20:19:29.204Z,2.80
2024-02-04T20:21:55.982Z,2.90
2024-02-04T20:24:23.023Z,2.90
2024-02-04T20:26:49.893Z,2.80
2024-02-04T20:29:19.092Z,2.50
2024-02-04T20:31:50.960Z,2.60
2024-02-04T20:34:18.288Z,2.53
2024-02-04T20:36:50.827Z,2.60
2024-02-04T20:39:19.214Z,2.80
2024-02-04T20:41:47.741Z,2.43
2024-02-04T20:44:17.452Z,2.53
2024-02-04T20:46:46.663Z,2.57
2024-02-04T20:49:13.440Z,2.47
2024-02-04T20:51:42.911Z,2.43
2024-02-04T20:54:10.523Z,2.80
2024-02-04T20:56:39.532Z,2.20
2024-02-04T20:59:06.425Z,2.50
2024-02-04T21:01:33.182Z,2.43
2024-02-04T21:04:00.060Z,2.57
2024-02-04T21:06:32.148Z,2.13
2024-02-04T21:09:01.518Z,2.23
2024-02-04T21:11:29.056Z,1.90
2024-02-04T21:13:56.285Z,2.10
2024-02-04T21:16:24.176Z,2.00
2024-02-04T21:18:51.959Z,1.60
2024-02-04T21:21:20.984Z,2.13
2024-02-04T21:23:47.796Z,2.33
2024-02-04T21:26:14.585Z,2.00
2024-02-04T21:28:41.349Z,1.60
2024-02-04T21:31:11.326Z,1.80
2024-02-04T21:33:40.463Z,1.80
2024-02-04T21:36:13.744Z,1.73
2024-02-04T21:38:43.102Z,1.50
2024-02-04T21:41:17.441Z,1.67
2024-02-04T21:43:44.121Z,1.50
2024-02-04T21:46:13.278Z,1.40
2024-02-04T21:48:42.309Z,1.53
2024-02-04T21:51:09.063Z,1.13
2024-02-04T21:53:35.868Z,1.40
2024-02-04T21:56:05.120Z,1.10
2024-02-04T21:58:34.731Z,1.73
2024-02-04T22:01:04.029Z,1.40
2024-02-04T22:03:30.823Z,1.27
2024-02-04T22:05:57.687Z,1.10
2024-02-04T22:08:24.758Z,1.40
2024-02-04T22:10:53.936Z,1.20
2024-02-04T22:13:20.846Z,1.20
2024-02-04T22:15:50.269Z,1.20
2024-02-04T22:18:19.565Z,1.13
2024-02-04T22:20:48.609Z,1.20
2024-02-04T22:23:18.316Z,1.37
2024-02-04T22:25:45.027Z,1.30
2024-02-04T22:28:14.439Z,1.10
2024-02-04T22:30:44.000Z,1.03
2024-02-04T22:33:13.140Z,1.20
2024-02-04T22:35:41.995Z,1.10
2024-02-04T22:38:10.388Z,1.13
2024-02-04T22:40:37.118Z,0.80
2024-02-04T22:43:04.117Z,1.13
2024-02-04T22:45:33.957Z,1.07
2024-02-04T22:48:03.546Z,0.80
2024-02-04T22:50:30.709Z,0.70
2024-02-04T22:52:59.706Z,0.80
2024-02-04T22:55:26.437Z,0.90
2024-02-04T22:57:53.227Z,0.80
2024-02-04T23:00:29.818Z,1.00
2024-02-04T23:02:57.036Z,0.87
2024-02-04T23:05:23.843Z,0.83
2024-02-04T23:07:52.499Z,0.73
2024-02-04T23:10:20.356Z,0.93
2024-02-04T23:12:47.229Z,0.90
2024-02-04T23:15:16.530Z,0.70
2024-02-04T23:17:45.990Z,0.70
2024-02-04T23:20:12.953Z,0.90
2024-02-04T23:22:39.790Z,0.80
2024-02-04T23:25:06.991Z,0.70
2024-02-04T23:27:34.166Z,0.83
2024-02-04T23:30:01.023Z,0.87
2024-02-04T23:32:27.800Z,0.50
2024-02-04T23:34:55.562Z,0.80
2024-02-04T23:37:22.400Z,0.70
2024-02-04T23:39:49.294Z,0.60
2024-02-04T23:42:16.075Z,0.50
2024-02-04T23:44:44.937Z,0.87
2024-02-04T23:47:13.088Z,0.90
2024-02-04T23:49:41.118Z,0.60
2024-02-04T23:52:08.481Z,0.70
2024-02-04T23:54:35.481Z,0.50
2024-02-04T23:57:05.772Z,0.87
2024-02-04T23:59:32.561Z,0.80
